sensor_id;sensor_type;location;lat;lon;timestamp;P1;durP1;ratioP1;P2;durP2;ratioP2
23608;SDS011;11982;50.810;4.442;2023-07-29T00:00:40;3.42;;;2.05;;
23608;SDS011;11982;50.810;4.442;2023-07-29T00:03:06;5.93;;;1.98;;
23608;SDS011;11982;50.810;4.442;2023-07-29T00:05:32;5.10;;;2.38;;
23608;SDS011;11982;50.810;4.442;2023-07-29T00:10:32;3.80;;;2.10;;
23608;SDS011;11982;50.810;4.442;2023-07-29T00:13:00;4.13;;;2.13;;
23608;SDS011;11982;50.810;4.442;2023-07-29T00:15:26;2.70;;;1.70;;
23608;SDS011;11982;50.810;4.442;2023-07-29T00:17:52;2.33;;;1.90;;
23608;SDS011;11982;50.810;4.442;2023-07-29T00:20:18;4.47;;;1.75;;
23608;SDS011;11982;50.810;4.442;2023-07-29T00:22:43;2.65;;;1.88;;
23608;SDS011;11982;50.810;4.442;2023-07-29T00:25:09;7.47;;;2.10;;
23608;SDS011;11982;50.810;4.442;2023-07-29T00:27:35;3.97;;;1.80;;
23608;SDS011;11982;50.810;4.442;2023-07-29T00:30:00;4.60;;;1.65;;
23608;SDS011;11982;50.810;4.442;2023-07-29T00:32:29;3.58;;;1.98;;
23608;SDS011;11982;50.810;4.442;2023-07-29T00:34:55;4.68;;;1.67;;
23608;SDS011;11982;50.810;4.442;2023-07-29T00:37:21;4.95;;;1.80;;
23608;SDS011;11982;50.810;4.442;2023-07-29T00:39:47;3.63;;;2.30;;
23608;SDS011;11982;50.810;4.442;2023-07-29T00:42:12;4.20;;;2.00;;
23608;SDS011;11982;50.810;4.442;2023-07-29T00:44:38;4.40;;;1.95;;
23608;SDS011;11982;50.810;4.442;2023-07-29T00:47:04;4.63;;;2.00;;
23608;SDS011;11982;50.810;4.442;2023-07-29T00:49:32;5.50;;;2.10;;
23608;SDS011;11982;50.810;4.442;2023-07-29T00:51:57;3.13;;;1.50;;
23608;SDS011;11982;50.810;4.442;2023-07-29T00:54:23;5.88;;;2.17;;
23608;SDS011;11982;50.810;4.442;2023-07-29T00:56:49;7.85;;;2.35;;
23608;SDS011;11982;50.810;4.442;2023-07-29T00:59:15;4.93;;;2.72;;
23608;SDS011;11982;50.810;4.442;2023-07-29T01:01:41;2.75;;;1.90;;
23608;SDS011;11982;50.810;4.442;2023-07-29T01:04:07;5.07;;;2.05;;
23608;SDS011;11982;50.810;4.442;2023-07-29T01:09:41;3.85;;;2.17;;
23608;SDS011;11982;50.810;4.442;2023-07-29T01:17:25;4.13;;;2.20;;
23608;SDS011;11982;50.810;4.442;2023-07-29T01:20:08;3.53;;;2.13;;
23608;SDS011;11982;50.810;4.442;2023-07-29T01:22:45;7.10;;;2.20;;
23608;SDS011;11982;50.810;4.442;2023-07-29T01:25:12;6.45;;;2.38;;
23608;SDS011;11982;50.810;4.442;2023-07-29T01:27:38;4.82;;;1.80;;
23608;SDS011;11982;50.810;4.442;2023-07-29T01:30:04;4.05;;;1.88;;
23608;SDS011;11982;50.810;4.442;2023-07-29T01:35:25;4.95;;;2.15;;
23608;SDS011;11982;50.810;4.442;2023-07-29T01:38:07;4.47;;;1.83;;
23608;SDS011;11982;50.810;4.442;2023-07-29T01:40:39;9.35;;;2.20;;
23608;SDS011;11982;50.810;4.442;2023-07-29T01:43:06;5.40;;;2.10;;
23608;SDS011;11982;50.810;4.442;2023-07-29T01:45:34;3.00;;;2.08;;
23608;SDS011;11982;50.810;4.442;2023-07-29T01:48:04;6.63;;;2.05;;
23608;SDS011;11982;50.810;4.442;2023-07-29T01:50:30;4.82;;;2.42;;
23608;SDS011;11982;50.810;4.442;2023-07-29T01:52:57;3.90;;;2.00;;
23608;SDS011;11982;50.810;4.442;2023-07-29T01:55:23;9.60;;;2.38;;
23608;SDS011;11982;50.810;4.442;2023-07-29T01:57:49;4.45;;;2.40;;
23608;SDS011;11982;50.810;4.442;2023-07-29T02:00:15;7.43;;;2.45;;
23608;SDS011;11982;50.810;4.442;2023-07-29T02:02:40;5.65;;;2.60;;
23608;SDS011;11982;50.810;4.442;2023-07-29T02:05:06;9.07;;;2.15;;
23608;SDS011;11982;50.810;4.442;2023-07-29T02:07:32;7.20;;;2.63;;
23608;SDS011;11982;50.810;4.442;2023-07-29T02:09:58;5.10;;;2.65;;
23608;SDS011;11982;50.810;4.442;2023-07-29T02:12:24;7.10;;;2.80;;
23608;SDS011;11982;50.810;4.442;2023-07-29T02:14:50;5.57;;;2.45;;
23608;SDS011;11982;50.810;4.442;2023-07-29T02:17:15;4.20;;;2.70;;
23608;SDS011;11982;50.810;4.442;2023-07-29T02:19:41;9.20;;;2.92;;
23608;SDS011;11982;50.810;4.442;2023-07-29T02:22:07;6.97;;;2.45;;
23608;SDS011;11982;50.810;4.442;2023-07-29T02:24:33;5.13;;;2.63;;
23608;SDS011;11982;50.810;4.442;2023-07-29T02:26:58;9.15;;;2.70;;
23608;SDS011;11982;50.810;4.442;2023-07-29T02:29:24;5.50;;;2.85;;
23608;SDS011;11982;50.810;4.442;2023-07-29T02:31:50;4.97;;;2.58;;
23608;SDS011;11982;50.810;4.442;2023-07-29T02:34:16;4.50;;;2.90;;
23608;SDS011;11982;50.810;4.442;2023-07-29T02:36:42;6.13;;;2.85;;
23608;SDS011;11982;50.810;4.442;2023-07-29T02:39:07;5.30;;;2.72;;
23608;SDS011;11982;50.810;4.442;2023-07-29T02:41:33;7.13;;;2.80;;
23608;SDS011;11982;50.810;4.442;2023-07-29T02:43:59;6.38;;;2.95;;
23608;SDS011;11982;50.810;4.442;2023-07-29T02:46:24;7.63;;;2.78;;
23608;SDS011;11982;50.810;4.442;2023-07-29T02:48:50;5.30;;;2.22;;
23608;SDS011;11982;50.810;4.442;2023-07-29T02:51:16;4.85;;;2.47;;
23608;SDS011;11982;50.810;4.442;2023-07-29T02:53:41;5.25;;;2.60;;
23608;SDS011;11982;50.810;4.442;2023-07-29T02:56:07;5.10;;;2.85;;
23608;SDS011;11982;50.810;4.442;2023-07-29T02:58:35;3.78;;;2.47;;
23608;SDS011;11982;50.810;4.442;2023-07-29T03:01:01;8.48;;;2.95;;
23608;SDS011;11982;50.810;4.442;2023-07-29T03:03:29;6.97;;;2.70;;
23608;SDS011;11982;50.810;4.442;2023-07-29T03:06:05;5.13;;;3.08;;
23608;SDS011;11982;50.810;4.442;2023-07-29T03:08:35;8.07;;;2.50;;
23608;SDS011;11982;50.810;4.442;2023-07-29T03:11:05;4.97;;;2.63;;
23608;SDS011;11982;50.810;4.442;2023-07-29T03:13:36;4.28;;;2.60;;
23608;SDS011;11982;50.810;4.442;2023-07-29T03:16:09;5.88;;;2.47;;
23608;SDS011;11982;50.810;4.442;2023-07-29T03:18:37;4.97;;;2.80;;
23608;SDS011;11982;50.810;4.442;2023-07-29T03:21:03;5.25;;;2.50;;
23608;SDS011;11982;50.810;4.442;2023-07-29T03:23:30;9.35;;;2.53;;
23608;SDS011;11982;50.810;4.442;2023-07-29T03:25:57;9.18;;;2.88;;
23608;SDS011;11982;50.810;4.442;2023-07-29T03:28:27;7.28;;;2.53;;
23608;SDS011;11982;50.810;4.442;2023-07-29T03:30:55;4.45;;;2.67;;
23608;SDS011;11982;50.810;4.442;2023-07-29T03:33:21;6.32;;;2.88;;
23608;SDS011;11982;50.810;4.442;2023-07-29T03:35:47;7.32;;;2.92;;
23608;SDS011;11982;50.810;4.442;2023-07-29T03:38:14;6.47;;;3.10;;
23608;SDS011;11982;50.810;4.442;2023-07-29T03:40:40;9.30;;;2.95;;
23608;SDS011;11982;50.810;4.442;2023-07-29T03:43:06;4.97;;;2.65;;
23608;SDS011;11982;50.810;4.442;2023-07-29T03:45:32;6.43;;;2.70;;
23608;SDS011;11982;50.810;4.442;2023-07-29T03:47:58;4.20;;;2.75;;
23608;SDS011;11982;50.810;4.442;2023-07-29T03:50:24;6.18;;;2.67;;
23608;SDS011;11982;50.810;4.442;2023-07-29T03:52:50;5.07;;;2.90;;
23608;SDS011;11982;50.810;4.442;2023-07-29T03:55:16;9.93;;;3.38;;
23608;SDS011;11982;50.810;4.442;2023-07-29T03:57:41;5.10;;;2.75;;
23608;SDS011;11982;50.810;4.442;2023-07-29T04:00:07;6.43;;;3.08;;
23608;SDS011;11982;50.810;4.442;2023-07-29T04:02:34;7.32;;;2.58;;
23608;SDS011;11982;50.810;4.442;2023-07-29T04:05:02;5.95;;;2.35;;
23608;SDS011;11982;50.810;4.442;2023-07-29T04:07:29;8.07;;;2.78;;
23608;SDS011;11982;50.810;4.442;2023-07-29T04:09:55;6.25;;;2.83;;
23608;SDS011;11982;50.810;4.442;2023-07-29T04:15:34;4.55;;;2.85;;
23608;SDS011;11982;50.810;4.442;2023-07-29T04:20:30;5.28;;;3.08;;
23608;SDS011;11982;50.810;4.442;2023-07-29T04:22:56;6.88;;;3.03;;
23608;SDS011;11982;50.810;4.442;2023-07-29T04:25:22;5.45;;;2.80;;
23608;SDS011;11982;50.810;4.442;2023-07-29T04:27:48;6.82;;;2.80;;
23608;SDS011;11982;50.810;4.442;2023-07-29T04:30:13;6.28;;;2.97;;
23608;SDS011;11982;50.810;4.442;2023-07-29T04:32:39;5.90;;;2.60;;
23608;SDS011;11982;50.810;4.442;2023-07-29T04:35:07;3.13;;;2.60;;
23608;SDS011;11982;50.810;4.442;2023-07-29T04:37:33;3.70;;;2.30;;
23608;SDS011;11982;50.810;4.442;2023-07-29T04:39:59;7.18;;;2.58;;
23608;SDS011;11982;50.810;4.442;2023-07-29T04:42:24;3.15;;;2.38;;
23608;SDS011;11982;50.810;4.442;2023-07-29T04:44:50;4.35;;;2.75;;
23608;SDS011;11982;50.810;4.442;2023-07-29T04:47:16;5.05;;;2.47;;
23608;SDS011;11982;50.810;4.442;2023-07-29T04:49:42;6.07;;;2.60;;
23608;SDS011;11982;50.810;4.442;2023-07-29T04:52:08;5.90;;;2.40;;
23608;SDS011;11982;50.810;4.442;2023-07-29T04:54:33;6.32;;;2.78;;
23608;SDS011;11982;50.810;4.442;2023-07-29T04:56:59;7.28;;;2.65;;
23608;SDS011;11982;50.810;4.442;2023-07-29T04:59:25;9.85;;;2.65;;
23608;SDS011;11982;50.810;4.442;2023-07-29T05:01:51;5.32;;;2.60;;
23608;SDS011;11982;50.810;4.442;2023-07-29T05:04:16;6.20;;;2.47;;
23608;SDS011;11982;50.810;4.442;2023-07-29T05:06:42;3.83;;;2.33;;
23608;SDS011;11982;50.810;4.442;2023-07-29T05:09:14;4.75;;;2.28;;
23608;SDS011;11982;50.810;4.442;2023-07-29T05:11:41;4.88;;;2.38;;
23608;SDS011;11982;50.810;4.442;2023-07-29T05:14:09;4.43;;;2.30;;
23608;SDS011;11982;50.810;4.442;2023-07-29T05:16:35;4.82;;;2.35;;
23608;SDS011;11982;50.810;4.442;2023-07-29T05:19:00;4.95;;;2.42;;
23608;SDS011;11982;50.810;4.442;2023-07-29T05:21:26;4.30;;;1.98;;
23608;SDS011;11982;50.810;4.442;2023-07-29T05:23:52;5.85;;;2.20;;
23608;SDS011;11982;50.810;4.442;2023-07-29T05:26:17;5.32;;;2.58;;
23608;SDS011;11982;50.810;4.442;2023-07-29T05:28:43;6.15;;;2.95;;
23608;SDS011;11982;50.810;4.442;2023-07-29T05:31:09;2.83;;;2.03;;
23608;SDS011;11982;50.810;4.442;2023-07-29T05:33:34;6.53;;;2.08;;
23608;SDS011;11982;50.810;4.442;2023-07-29T05:36:02;3.55;;;2.08;;
23608;SDS011;11982;50.810;4.442;2023-07-29T05:38:28;2.70;;;1.80;;
23608;SDS011;11982;50.810;4.442;2023-07-29T05:40:53;2.90;;;1.55;;
23608;SDS011;11982;50.810;4.442;2023-07-29T05:43:19;3.22;;;2.00;;
23608;SDS011;11982;50.810;4.442;2023-07-29T05:45:45;3.25;;;1.75;;
23608;SDS011;11982;50.810;4.442;2023-07-29T05:48:10;4.30;;;1.85;;
23608;SDS011;11982;50.810;4.442;2023-07-29T05:50:36;4.65;;;2.10;;
23608;SDS011;11982;50.810;4.442;2023-07-29T05:53:03;7.80;;;1.92;;
23608;SDS011;11982;50.810;4.442;2023-07-29T05:55:28;4.80;;;1.73;;
23608;SDS011;11982;50.810;4.442;2023-07-29T05:57:54;4.30;;;2.05;;
23608;SDS011;11982;50.810;4.442;2023-07-29T06:00:20;3.63;;;1.50;;
23608;SDS011;11982;50.810;4.442;2023-07-29T06:02:46;3.65;;;1.58;;
23608;SDS011;11982;50.810;4.442;2023-07-29T06:05:11;2.55;;;1.50;;
23608;SDS011;11982;50.810;4.442;2023-07-29T06:07:37;2.08;;;1.55;;
23608;SDS011;11982;50.810;4.442;2023-07-29T06:10:03;6.95;;;2.55;;
23608;SDS011;11982;50.810;4.442;2023-07-29T06:12:29;3.25;;;1.90;;
23608;SDS011;11982;50.810;4.442;2023-07-29T06:14:54;3.33;;;1.23;;
23608;SDS011;11982;50.810;4.442;2023-07-29T06:17:20;2.63;;;1.45;;
23608;SDS011;11982;50.810;4.442;2023-07-29T06:19:46;5.20;;;1.60;;
23608;SDS011;11982;50.810;4.442;2023-07-29T06:22:11;3.10;;;1.50;;
23608;SDS011;11982;50.810;4.442;2023-07-29T06:24:37;1.77;;;1.48;;
23608;SDS011;11982;50.810;4.442;2023-07-29T06:27:03;4.35;;;1.73;;
23608;SDS011;11982;50.810;4.442;2023-07-29T06:29:28;5.20;;;1.58;;
23608;SDS011;11982;50.810;4.442;2023-07-29T06:31:54;5.35;;;2.30;;
23608;SDS011;11982;50.810;4.442;2023-07-29T06:34:20;3.35;;;1.40;;
23608;SDS011;11982;50.810;4.442;2023-07-29T06:36:45;2.38;;;1.60;;
23608;SDS011;11982;50.810;4.442;2023-07-29T06:39:11;3.78;;;1.45;;
23608;SDS011;11982;50.810;4.442;2023-07-29T06:41:37;3.13;;;1.90;;
23608;SDS011;11982;50.810;4.442;2023-07-29T06:44:03;2.50;;;1.50;;
23608;SDS011;11982;50.810;4.442;2023-07-29T06:46:29;1.70;;;1.38;;
23608;SDS011;11982;50.810;4.442;2023-07-29T06:48:54;2.88;;;1.25;;
23608;SDS011;11982;50.810;4.442;2023-07-29T06:51:20;1.58;;;1.30;;
23608;SDS011;11982;50.810;4.442;2023-07-29T06:53:46;3.05;;;1.45;;
23608;SDS011;11982;50.810;4.442;2023-07-29T06:56:11;3.25;;;1.60;;
23608;SDS011;11982;50.810;4.442;2023-07-29T06:58:37;3.10;;;1.30;;
23608;SDS011;11982;50.810;4.442;2023-07-29T07:01:03;3.83;;;1.30;;
23608;SDS011;11982;50.810;4.442;2023-07-29T07:03:28;4.03;;;1.83;;
23608;SDS011;11982;50.810;4.442;2023-07-29T07:05:54;2.60;;;1.50;;
23608;SDS011;11982;50.810;4.442;2023-07-29T07:08:20;2.65;;;1.50;;
23608;SDS011;11982;50.810;4.442;2023-07-29T07:10:46;3.47;;;1.73;;
23608;SDS011;11982;50.810;4.442;2023-07-29T07:13:12;3.08;;;1.30;;
23608;SDS011;11982;50.810;4.442;2023-07-29T07:15:38;4.20;;;1.55;;
23608;SDS011;11982;50.810;4.442;2023-07-29T07:18:03;2.13;;;1.27;;
23608;SDS011;11982;50.810;4.442;2023-07-29T07:20:29;2.10;;;1.63;;
23608;SDS011;11982;50.810;4.442;2023-07-29T07:22:55;3.03;;;1.30;;
23608;SDS011;11982;50.810;4.442;2023-07-29T07:25:21;2.35;;;1.35;;
23608;SDS011;11982;50.810;4.442;2023-07-29T07:27:47;2.47;;;1.48;;
23608;SDS011;11982;50.810;4.442;2023-07-29T07:30:13;2.70;;;1.40;;
23608;SDS011;11982;50.810;4.442;2023-07-29T07:32:39;2.55;;;1.58;;
23608;SDS011;11982;50.810;4.442;2023-07-29T07:35:05;3.38;;;1.40;;
23608;SDS011;11982;50.810;4.442;2023-07-29T07:37:31;4.88;;;1.67;;
23608;SDS011;11982;50.810;4.442;2023-07-29T07:39:56;4.18;;;1.75;;
23608;SDS011;11982;50.810;4.442;2023-07-29T07:42:22;2.67;;;1.55;;
23608;SDS011;11982;50.810;4.442;2023-07-29T07:44:48;3.13;;;1.50;;
23608;SDS011;11982;50.810;4.442;2023-07-29T07:47:13;3.58;;;1.40;;
23608;SDS011;11982;50.810;4.442;2023-07-29T07:49:39;5.35;;;1.58;;
23608;SDS011;11982;50.810;4.442;2023-07-29T07:52:05;3.83;;;1.65;;
23608;SDS011;11982;50.810;4.442;2023-07-29T07:54:31;2.45;;;1.20;;
23608;SDS011;11982;50.810;4.442;2023-07-29T07:56:56;2.72;;;1.60;;
23608;SDS011;11982;50.810;4.442;2023-07-29T07:59:22;3.53;;;1.50;;
23608;SDS011;11982;50.810;4.442;2023-07-29T08:01:48;2.13;;;1.60;;
23608;SDS011;11982;50.810;4.442;2023-07-29T08:04:13;3.35;;;1.45;;
23608;SDS011;11982;50.810;4.442;2023-07-29T08:06:39;1.90;;;1.40;;
23608;SDS011;11982;50.810;4.442;2023-07-29T08:09:05;1.40;;;1.30;;
23608;SDS011;11982;50.810;4.442;2023-07-29T08:11:31;3.53;;;1.35;;
23608;SDS011;11982;50.810;4.442;2023-07-29T08:13:57;3.78;;;1.40;;
23608;SDS011;11982;50.810;4.442;2023-07-29T08:16:24;3.42;;;1.42;;
23608;SDS011;11982;50.810;4.442;2023-07-29T08:18:49;2.42;;;1.50;;
23608;SDS011;11982;50.810;4.442;2023-07-29T08:21:15;2.78;;;1.50;;
23608;SDS011;11982;50.810;4.442;2023-07-29T08:23:41;2.33;;;1.25;;
23608;SDS011;11982;50.810;4.442;2023-07-29T08:26:06;3.33;;;1.50;;
23608;SDS011;11982;50.810;4.442;2023-07-29T08:28:33;5.63;;;1.40;;
23608;SDS011;11982;50.810;4.442;2023-07-29T08:31:02;2.25;;;1.35;;
23608;SDS011;11982;50.810;4.442;2023-07-29T08:33:30;3.13;;;1.45;;
23608;SDS011;11982;50.810;4.442;2023-07-29T08:36:03;5.32;;;1.23;;
23608;SDS011;11982;50.810;4.442;2023-07-29T08:38:29;2.50;;;1.35;;
23608;SDS011;11982;50.810;4.442;2023-07-29T08:41:09;1.92;;;1.35;;
23608;SDS011;11982;50.810;4.442;2023-07-29T08:44:00;4.35;;;1.70;;
23608;SDS011;11982;50.810;4.442;2023-07-29T08:46:35;4.70;;;1.42;;
23608;SDS011;11982;50.810;4.442;2023-07-29T08:49:01;3.65;;;1.90;;
23608;SDS011;11982;50.810;4.442;2023-07-29T08:51:27;3.60;;;1.80;;
23608;SDS011;11982;50.810;4.442;2023-07-29T08:53:56;2.30;;;1.38;;
23608;SDS011;11982;50.810;4.442;2023-07-29T08:56:23;2.20;;;1.75;;
23608;SDS011;11982;50.810;4.442;2023-07-29T08:58:49;3.65;;;1.88;;
23608;SDS011;11982;50.810;4.442;2023-07-29T09:01:15;3.05;;;1.80;;
23608;SDS011;11982;50.810;4.442;2023-07-29T09:03:42;4.88;;;1.90;;
23608;SDS011;11982;50.810;4.442;2023-07-29T09:06:08;4.18;;;1.70;;
23608;SDS011;11982;50.810;4.442;2023-07-29T09:08:34;1.63;;;1.48;;
23608;SDS011;11982;50.810;4.442;2023-07-29T09:11:00;2.72;;;1.70;;
23608;SDS011;11982;50.810;4.442;2023-07-29T09:15:58;3.30;;;1.70;;
23608;SDS011;11982;50.810;4.442;2023-07-29T09:18:26;2.80;;;1.73;;
23608;SDS011;11982;50.810;4.442;2023-07-29T09:20:52;2.38;;;1.73;;
23608;SDS011;11982;50.810;4.442;2023-07-29T09:23:18;2.63;;;1.70;;
23608;SDS011;11982;50.810;4.442;2023-07-29T09:25:46;2.78;;;1.55;;
23608;SDS011;11982;50.810;4.442;2023-07-29T09:28:13;1.95;;;1.75;;
23608;SDS011;11982;50.810;4.442;2023-07-29T09:30:40;2.45;;;1.70;;
23608;SDS011;11982;50.810;4.442;2023-07-29T09:33:23;2.55;;;1.50;;
23608;SDS011;11982;50.810;4.442;2023-07-29T09:35:51;1.80;;;1.40;;
23608;SDS011;11982;50.810;4.442;2023-07-29T09:38:17;3.20;;;1.70;;
23608;SDS011;11982;50.810;4.442;2023-07-29T09:40:42;5.53;;;1.90;;
23608;SDS011;11982;50.810;4.442;2023-07-29T09:43:10;1.95;;;1.70;;
23608;SDS011;11982;50.810;4.442;2023-07-29T09:45:36;3.17;;;2.28;;
23608;SDS011;11982;50.810;4.442;2023-07-29T09:48:03;1.98;;;1.63;;
23608;SDS011;11982;50.810;4.442;2023-07-29T09:50:35;1.77;;;1.58;;
23608;SDS011;11982;50.810;4.442;2023-07-29T09:53:01;3.97;;;1.65;;
23608;SDS011;11982;50.810;4.442;2023-07-29T09:55:28;3.25;;;1.85;;
23608;SDS011;11982;50.810;4.442;2023-07-29T09:57:57;5.93;;;2.00;;
23608;SDS011;11982;50.810;4.442;2023-07-29T10:00:26;4.30;;;1.80;;
23608;SDS011;11982;50.810;4.442;2023-07-29T10:02:56;5.18;;;1.60;;
23608;SDS011;11982;50.810;4.442;2023-07-29T10:05:25;4.85;;;1.77;;
23608;SDS011;11982;50.810;4.442;2023-07-29T10:07:52;2.47;;;1.55;;
23608;SDS011;11982;50.810;4.442;2023-07-29T10:10:36;3.25;;;1.63;;
23608;SDS011;11982;50.810;4.442;2023-07-29T10:13:15;4.18;;;1.73;;
23608;SDS011;11982;50.810;4.442;2023-07-29T10:15:41;5.35;;;2.20;;
23608;SDS011;11982;50.810;4.442;2023-07-29T10:18:09;3.03;;;1.85;;
23608;SDS011;11982;50.810;4.442;2023-07-29T10:20:34;3.55;;;1.83;;
23608;SDS011;11982;50.810;4.442;2023-07-29T10:23:01;3.85;;;1.95;;
23608;SDS011;11982;50.810;4.442;2023-07-29T10:25:43;1.90;;;1.63;;
23608;SDS011;11982;50.810;4.442;2023-07-29T10:28:15;1.75;;;1.65;;
23608;SDS011;11982;50.810;4.442;2023-07-29T10:30:43;3.15;;;2.00;;
23608;SDS011;11982;50.810;4.442;2023-07-29T10:33:09;2.28;;;2.00;;
23608;SDS011;11982;50.810;4.442;2023-07-29T10:35:35;3.70;;;2.10;;
23608;SDS011;11982;50.810;4.442;2023-07-29T10:38:02;2.70;;;2.50;;
23608;SDS011;11982;50.810;4.442;2023-07-29T10:40:50;2.60;;;1.95;;
23608;SDS011;11982;50.810;4.442;2023-07-29T10:53:51;3.38;;;2.40;;
23608;SDS011;11982;50.810;4.442;2023-07-29T10:56:29;2.83;;;2.13;;
23608;SDS011;11982;50.810;4.442;2023-07-29T10:58:59;3.30;;;2.20;;
23608;SDS011;11982;50.810;4.442;2023-07-29T11:01:56;5.78;;;3.13;;
23608;SDS011;11982;50.810;4.442;2023-07-29T11:04:24;2.20;;;1.98;;
23608;SDS011;11982;50.810;4.442;2023-07-29T11:07:18;2.63;;;2.30;;
23608;SDS011;11982;50.810;4.442;2023-07-29T11:12:44;4.13;;;3.08;;
23608;SDS011;11982;50.810;4.442;2023-07-29T11:18:01;5.93;;;3.13;;
23608;SDS011;11982;50.810;4.442;2023-07-29T11:20:28;3.78;;;3.13;;
23608;SDS011;11982;50.810;4.442;2023-07-29T11:28:29;3.28;;;2.90;;
23608;SDS011;11982;50.810;4.442;2023-07-29T11:30:56;6.20;;;3.15;;
23608;SDS011;11982;50.810;4.442;2023-07-29T11:33:23;3.75;;;2.72;;
23608;SDS011;11982;50.810;4.442;2023-07-29T11:35:50;4.65;;;2.80;;
23608;SDS011;11982;50.810;4.442;2023-07-29T11:38:18;3.17;;;2.97;;
23608;SDS011;11982;50.810;4.442;2023-07-29T11:43:44;3.75;;;2.35;;
23608;SDS011;11982;50.810;4.442;2023-07-29T11:46:10;4.10;;;2.80;;
23608;SDS011;11982;50.810;4.442;2023-07-29T11:48:36;3.83;;;2.90;;
23608;SDS011;11982;50.810;4.442;2023-07-29T11:51:02;3.80;;;2.53;;
23608;SDS011;11982;50.810;4.442;2023-07-29T11:53:28;4.32;;;2.85;;
23608;SDS011;11982;50.810;4.442;2023-07-29T11:55:58;2.67;;;2.30;;
23608;SDS011;11982;50.810;4.442;2023-07-29T11:58:23;3.58;;;2.60;;
23608;SDS011;11982;50.810;4.442;2023-07-29T12:00:50;5.18;;;2.65;;
23608;SDS011;11982;50.810;4.442;2023-07-29T12:03:16;2.50;;;2.30;;
23608;SDS011;11982;50.810;4.442;2023-07-29T12:05:43;3.40;;;2.13;;
23608;SDS011;11982;50.810;4.442;2023-07-29T12:08:09;3.25;;;2.50;;
23608;SDS011;11982;50.810;4.442;2023-07-29T12:10:35;3.67;;;2.58;;
23608;SDS011;11982;50.810;4.442;2023-07-29T12:13:02;4.68;;;2.45;;
23608;SDS011;11982;50.810;4.442;2023-07-29T12:15:28;3.67;;;2.30;;
23608;SDS011;11982;50.810;4.442;2023-07-29T12:17:58;6.85;;;3.00;;
23608;SDS011;11982;50.810;4.442;2023-07-29T12:20:24;5.50;;;3.05;;
23608;SDS011;11982;50.810;4.442;2023-07-29T12:22:55;5.00;;;3.40;;
23608;SDS011;11982;50.810;4.442;2023-07-29T12:25:21;3.78;;;3.30;;
23608;SDS011;11982;50.810;4.442;2023-07-29T12:27:48;3.70;;;3.40;;
23608;SDS011;11982;50.810;4.442;2023-07-29T12:30:14;4.28;;;3.65;;
23608;SDS011;11982;50.810;4.442;2023-07-29T12:32:43;7.28;;;3.70;;
23608;SDS011;11982;50.810;4.442;2023-07-29T12:35:10;9.43;;;4.60;;
23608;SDS011;11982;50.810;4.442;2023-07-29T12:37:40;13.82;;;5.22;;
23608;SDS011;11982;50.810;4.442;2023-07-29T12:40:09;8.80;;;4.47;;
23608;SDS011;11982;50.810;4.442;2023-07-29T12:42:48;3.80;;;3.35;;
23608;SDS011;11982;50.810;4.442;2023-07-29T12:45:15;4.80;;;3.50;;
23608;SDS011;11982;50.810;4.442;2023-07-29T12:47:42;6.57;;;4.10;;
23608;SDS011;11982;50.810;4.442;2023-07-29T12:50:08;5.85;;;4.70;;
23608;SDS011;11982;50.810;4.442;2023-07-29T12:52:34;7.97;;;6.07;;
23608;SDS011;11982;50.810;4.442;2023-07-29T12:55:00;7.30;;;6.32;;
23608;SDS011;11982;50.810;4.442;2023-07-29T12:57:25;5.80;;;5.20;;
23608;SDS011;11982;50.810;4.442;2023-07-29T12:59:51;10.35;;;5.60;;
23608;SDS011;11982;50.810;4.442;2023-07-29T13:02:17;29.95;;;13.07;;
23608;SDS011;11982;50.810;4.442;2023-07-29T13:04:43;17.40;;;13.20;;
23608;SDS011;11982;50.810;4.442;2023-07-29T13:07:08;7.90;;;6.55;;
23608;SDS011;11982;50.810;4.442;2023-07-29T13:09:34;6.72;;;5.22;;
23608;SDS011;11982;50.810;4.442;2023-07-29T13:12:00;9.75;;;7.68;;
23608;SDS011;11982;50.810;4.442;2023-07-29T13:14:26;10.45;;;7.15;;
23608;SDS011;11982;50.810;4.442;2023-07-29T13:16:52;12.43;;;8.88;;
23608;SDS011;11982;50.810;4.442;2023-07-29T13:21:46;7.68;;;5.65;;
23608;SDS011;11982;50.810;4.442;2023-07-29T13:24:11;5.60;;;4.30;;
23608;SDS011;11982;50.810;4.442;2023-07-29T13:26:37;4.35;;;3.95;;
23608;SDS011;11982;50.810;4.442;2023-07-29T13:29:03;6.05;;;4.75;;
23608;SDS011;11982;50.810;4.442;2023-07-29T13:31:29;4.82;;;4.18;;
23608;SDS011;11982;50.810;4.442;2023-07-29T13:34:07;3.50;;;3.20;;
23608;SDS011;11982;50.810;4.442;2023-07-29T13:36:33;5.65;;;3.40;;
23608;SDS011;11982;50.810;4.442;2023-07-29T13:38:58;4.65;;;3.33;;
23608;SDS011;11982;50.810;4.442;2023-07-29T13:41:24;3.72;;;3.00;;
23608;SDS011;11982;50.810;4.442;2023-07-29T13:43:50;5.85;;;2.40;;
23608;SDS011;11982;50.810;4.442;2023-07-29T13:46:15;2.42;;;2.22;;
23608;SDS011;11982;50.810;4.442;2023-07-29T13:48:41;2.42;;;2.22;;
23608;SDS011;11982;50.810;4.442;2023-07-29T13:51:07;2.55;;;1.83;;
23608;SDS011;11982;50.810;4.442;2023-07-29T13:53:32;1.90;;;1.65;;
23608;SDS011;11982;50.810;4.442;2023-07-29T13:55:58;2.22;;;1.70;;
23608;SDS011;11982;50.810;4.442;2023-07-29T13:58:24;3.72;;;1.60;;
23608;SDS011;11982;50.810;4.442;2023-07-29T14:03:30;2.20;;;1.80;;
23608;SDS011;11982;50.810;4.442;2023-07-29T14:05:56;1.80;;;1.70;;
23608;SDS011;11982;50.810;4.442;2023-07-29T14:08:21;1.63;;;1.42;;
23608;SDS011;11982;50.810;4.442;2023-07-29T14:10:49;2.00;;;1.80;;
23608;SDS011;11982;50.810;4.442;2023-07-29T14:13:23;1.98;;;1.63;;
23608;SDS011;11982;50.810;4.442;2023-07-29T14:18:28;2.83;;;1.27;;
23608;SDS011;11982;50.810;4.442;2023-07-29T14:20:55;1.30;;;1.20;;
23608;SDS011;11982;50.810;4.442;2023-07-29T14:23:21;1.42;;;1.33;;
23608;SDS011;11982;50.810;4.442;2023-07-29T14:25:46;1.33;;;1.23;;
23608;SDS011;11982;50.810;4.442;2023-07-29T14:28:13;4.32;;;1.38;;
23608;SDS011;11982;50.810;4.442;2023-07-29T14:30:39;3.25;;;1.42;;
23608;SDS011;11982;50.810;4.442;2023-07-29T14:33:06;1.30;;;1.20;;
23608;SDS011;11982;50.810;4.442;2023-07-29T14:35:32;2.15;;;1.30;;
23608;SDS011;11982;50.810;4.442;2023-07-29T14:37:59;1.30;;;1.20;;
23608;SDS011;11982;50.810;4.442;2023-07-29T14:40:27;1.63;;;1.50;;
23608;SDS011;11982;50.810;4.442;2023-07-29T14:42:52;2.33;;;1.40;;
23608;SDS011;11982;50.810;4.442;2023-07-29T14:47:53;1.60;;;1.27;;
23608;SDS011;11982;50.810;4.442;2023-07-29T14:50:25;1.48;;;1.38;;
23608;SDS011;11982;50.810;4.442;2023-07-29T14:52:51;3.50;;;1.40;;
23608;SDS011;11982;50.810;4.442;2023-07-29T14:55:17;1.30;;;1.20;;
23608;SDS011;11982;50.810;4.442;2023-07-29T14:57:42;1.20;;;1.10;;
23608;SDS011;11982;50.810;4.442;2023-07-29T15:00:08;1.33;;;1.23;;
23608;SDS011;11982;50.810;4.442;2023-07-29T15:02:34;1.85;;;1.55;;
23608;SDS011;11982;50.810;4.442;2023-07-29T15:05:00;1.55;;;1.40;;
23608;SDS011;11982;50.810;4.442;2023-07-29T15:13:34;1.83;;;1.40;;
23608;SDS011;11982;50.810;4.442;2023-07-29T15:16:00;1.75;;;1.65;;
23608;SDS011;11982;50.810;4.442;2023-07-29T15:18:26;2.03;;;1.60;;
23608;SDS011;11982;50.810;4.442;2023-07-29T15:20:56;1.90;;;1.70;;
23608;SDS011;11982;50.810;4.442;2023-07-29T15:23:22;1.83;;;1.38;;
23608;SDS011;11982;50.810;4.442;2023-07-29T15:25:49;2.05;;;1.20;;
23608;SDS011;11982;50.810;4.442;2023-07-29T15:28:15;1.50;;;1.40;;
23608;SDS011;11982;50.810;4.442;2023-07-29T15:30:41;1.10;;;1.00;;
23608;SDS011;11982;50.810;4.442;2023-07-29T15:36:01;1.55;;;1.38;;
23608;SDS011;11982;50.810;4.442;2023-07-29T15:38:27;2.00;;;1.30;;
23608;SDS011;11982;50.810;4.442;2023-07-29T15:40:53;3.15;;;1.40;;
23608;SDS011;11982;50.810;4.442;2023-07-29T15:43:18;2.15;;;1.20;;
23608;SDS011;11982;50.810;4.442;2023-07-29T15:45:44;1.80;;;1.20;;
23608;SDS011;11982;50.810;4.442;2023-07-29T15:48:11;3.25;;;1.45;;
23608;SDS011;11982;50.810;4.442;2023-07-29T15:50:37;1.67;;;1.48;;
23608;SDS011;11982;50.810;4.442;2023-07-29T15:53:03;3.55;;;1.67;;